Crater Lake, Oregon
Current Conditions -  °F | °C
As of 8:53 PM on Friday 28 Nov 2014 (Local Time) from KLMT Reporting Station
Light Rain Light Rain  
Wind Chill: 35°   Ceiling: 4300
Heat Index: 40°   Visibility: 10mi
Dew Point: 37°   Wind: 7mph
Humidity: 89%   Direction: 190°S
Pressure: 29.71"   Gusts: NA
Location:  42.58°N, 121.86°W
Report Text: KLMT 290453Z 19006KT 10SM -RA OVC043 04/03 A2971 RMK AO2 SLP052 P0001 T00440028
Loading
Personal Weather Stations






























Interactive Weather Map New forecast layout! Learn more

10-Day Weather Forecast

Advertisements
Track Severe Weather on mobile